| time (UTC) | temp F | wind direction | speed MPH | gust MPH | rain 1hr in | rain 24hr in | rain mn in | humidity % | barometer mb |
| 20260508224548 | 67 | 204 | 1.0 | 6.0 | 0.00 | 0.00 | 0.00 | 55 | 1014.5 |
| 20260508223055 | 68 | 158 | 1.0 | 5.0 | 0.00 | 0.00 | 0.00 | 55 | 1014.4 |
| 20260508221538 | 68 | 195 | 0.0 | 2.0 | 0.00 | 0.00 | 0.00 | 55 | 1014.4 |
| 20260508220056 | 68 | 193 | 0.0 | 5.0 | 0.00 | 0.00 | 0.00 | 55 | 1014.1 |
| 20260508214519 | 68 | 191 | 1.0 | 7.0 | 0.00 | 0.00 | 0.00 | 53 | 1014.5 |
| 20260508213056 | 69 | 245 | 3.0 | 9.0 | 0.00 | 0.00 | 0.00 | 53 | 1014.3 |
| 20260508211522 | 70 | 169 | 0.0 | 8.0 | 0.00 | 0.00 | 0.00 | 51 | 1014.4 |
| 20260508210059 | 70 | 177 | 2.0 | 7.0 | 0.00 | 0.00 | 0.00 | 51 | 1014.4 |
| 20260508204535 | 69 | 146 | 0.0 | 4.0 | 0.00 | 0.00 | 0.00 | 55 | 1014.3 |
| 20260508203054 | 69 | 86 | 0.0 | 6.0 | 0.00 | 0.00 | 0.00 | 55 | 1014.6 |
| 20260508201533 | 70 | 180 | 2.0 | 6.0 | 0.00 | 0.00 | 0.00 | 53 | 1014.7 |
| 20260508200050 | 71 | 259 | 0.0 | 2.0 | 0.00 | 0.15 | 0.00 | 48 | 1014.8 |
| 20260508194512 | 71 | 172 | 1.0 | 5.0 | 0.00 | 0.15 | 0.00 | 50 | 1015.2 |
| 20260508193054 | 72 | 234 | 3.0 | 9.0 | 0.00 | 0.15 | 0.00 | 48 | 1015.3 |
| 20260508191520 | 73 | 147 | 0.0 | 5.0 | 0.00 | 0.15 | 0.00 | 47 | 1015.5 |
| 20260508190036 | 70 | 160 | 1.0 | 3.0 | 0.00 | 0.15 | 0.00 | 47 | 1015.8 |
| 20260508184522 | 70 | 193 | 1.0 | 7.0 | 0.00 | 0.15 | 0.00 | 51 | 1016.2 |
| 20260508183035 | 72 | 189 | 1.0 | 5.0 | 0.00 | 0.15 | 0.00 | 48 | 1016.3 |
| 20260508181518 | 69 | 229 | 0.0 | 3.0 | 0.00 | 0.15 | 0.00 | 53 | 1016.6 |
| 20260508180041 | 71 | 149 | 0.0 | 3.0 | 0.00 | 0.15 | 0.00 | 56 | 1016.7 |
| 20260508174559 | 69 | 105 | 0.0 | 3.0 | 0.00 | 0.15 | 0.00 | 52 | 1017.0 |
| 20260508173036 | 70 | 256 | 1.0 | 6.0 | 0.00 | 0.15 | 0.00 | 46 | 1017.0 |
| 20260508171555 | 68 | 274 | 0.0 | 7.0 | 0.00 | 0.15 | 0.00 | 50 | 1017.3 |
| 20260508170016 | 69 | 139 | 0.0 | 4.0 | 0.00 | 0.15 | 0.00 | 52 | 1017.4 |
| 20260508164555 | 70 | 210 | 2.0 | 5.0 | 0.00 | 0.15 | 0.00 | 48 | 1017.6 |
| 20260508163017 | 71 | 120 | 1.0 | 4.0 | 0.00 | 0.15 | 0.00 | 48 | 1017.9 |
| 20260508161534 | 70 | 122 | 1.0 | 4.0 | 0.00 | 0.15 | 0.00 | 52 | 1018.0 |
| 20260508160050 | 69 | 116 | 1.0 | 3.0 | 0.00 | 0.15 | 0.00 | 48 | 1018.3 |
| 20260508154531 | 67 | 121 | 0.0 | 2.0 | 0.00 | 0.15 | 0.00 | 52 | 1018.5 |
| 20260508153048 | 66 | 258 | 2.0 | 4.0 | 0.00 | 0.15 | 0.00 | 49 | 1018.5 |
| 20260508151531 | 67 | 176 | 3.0 | 6.0 | 0.00 | 0.15 | 0.00 | 59 | 1018.6 |
| 20260508150056 | 66 | 141 | 0.0 | 5.0 | 0.00 | 0.17 | 0.00 | 62 | 1018.5 |
| 20260508144522 | 67 | 15 | 2.0 | 4.0 | 0.00 | 0.17 | 0.00 | 54 | 1018.4 |
| 20260508143101 | 65 | 224 | 0.0 | 4.0 | 0.00 | 0.17 | 0.00 | 56 | 1018.5 |
| 20260508141525 | 66 | 65 | 1.0 | 4.0 | 0.00 | 0.17 | 0.00 | 53 | 1018.7 |
| 20260508140052 | 64 | 37 | 0.0 | 2.0 | 0.00 | 0.24 | 0.00 | 68 | 1018.8 |
| 20260508134520 | 62 | 145 | 0.0 | 2.0 | 0.00 | 0.24 | 0.00 | 80 | 1018.9 |
| 20260508133036 | 61 | 8 | 0.0 | 3.0 | 0.00 | 0.24 | 0.00 | 80 | 1018.8 |
| 20260508131516 | 59 | 44 | 1.0 | 4.0 | 0.00 | 0.24 | 0.00 | 78 | 1018.8 |
| 20260508130036 | 56 | 330 | 1.0 | 3.0 | 0.00 | 0.25 | 0.00 | 80 | 1018.6 |
| 20260508124553 | 53 | 1 | 1.0 | 3.0 | 0.00 | 0.25 | 0.00 | 85 | 1018.5 |
| 20260508123036 | 52 | 337 | 1.0 | 4.0 | 0.00 | 0.25 | 0.00 | 87 | 1018.4 |
| 20260508121556 | 50 | 264 | 0.0 | 0.0 | 0.00 | 0.25 | 0.00 | 93 | 1018.3 |
| 20260508120024 | 49 | 324 | 0.0 | 0.0 | 0.00 | 0.35 | 0.00 | 93 | 1018.0 |
| 20260508114559 | 49 | 311 | 0.0 | 1.0 | 0.00 | 0.35 | 0.00 | 93 | 1017.8 |
| 20260508114501 | 49 | 311 | 0.0 | 1.0 | 0.00 | 0.35 | 0.00 | 93 | 1017.7 |
| 20260508113020 | 48 | 304 | 0.0 | 2.0 | 0.00 | 0.35 | 0.00 | 93 | 1017.5 |
| 20260508111539 | 47 | 85 | 0.0 | 2.0 | 0.00 | 0.35 | 0.00 | 93 | 1017.3 |
| 20260508110017 | 47 | 208 | 0.0 | 0.0 | 0.00 | 0.38 | 0.00 | 93 | 1017.0 |
| 20260508104541 | 47 | 5 | 0.0 | 0.0 | 0.00 | 0.38 | 0.00 | 93 | 1016.8 |
| 20260508103103 | 47 | 5 | 0.0 | 0.0 | 0.00 | 0.38 | 0.00 | 93 | 1016.4 |
| 20260508103002 | 47 | 5 | 0.0 | 0.0 | 0.00 | 0.38 | 0.00 | 93 | 1016.4 |
| 20260508101547 | 47 | 5 | 0.0 | 0.0 | 0.00 | 0.38 | 0.00 | 92 | 1016.1 |
| 20260508100028 | 47 | 5 | 0.0 | 1.0 | 0.00 | 0.38 | 0.00 | 92 | 1015.8 |
| 20260508094504 | 47 | 20 | 0.0 | 2.0 | 0.00 | 0.38 | 0.00 | 92 | 1015.6 |
| 20260508093045 | 47 | 14 | 0.0 | 2.0 | 0.00 | 0.38 | 0.00 | 92 | 1015.6 |
| 20260508091513 | 48 | 8 | 0.0 | 0.0 | 0.00 | 0.38 | 0.00 | 93 | 1015.6 |
| 20260508090039 | 48 | 8 | 0.0 | 0.0 | 0.00 | 0.41 | 0.00 | 93 | 1015.6 |
| 20260508084519 | 48 | 15 | 0.0 | 2.0 | 0.00 | 0.41 | 0.00 | 92 | 1015.3 |
| 20260508083048 | 48 | 4 | 0.0 | 2.0 | 0.00 | 0.41 | 0.00 | 92 | 1015.4 |
| 20260508081556 | 49 | 4 | 0.0 | 0.0 | 0.00 | 0.41 | 0.00 | 91 | 1015.2 |
| 20260508080054 | 49 | 4 | 0.0 | 0.0 | 0.00 | 0.56 | 0.00 | 92 | 1015.0 |
| 20260508074614 | 50 | 4 | 0.0 | 0.0 | 0.00 | 0.56 | 0.00 | 92 | 1015.0 |
| 20260508073020 | 50 | 4 | 0.0 | 0.0 | 0.00 | 0.56 | 0.00 | 92 | 1014.9 |
| 20260508071600 | 50 | 4 | 0.0 | 0.0 | 0.00 | 0.56 | 0.00 | 92 | 1015.0 |
| 20260508071502 | 50 | 4 | 0.0 | 0.0 | 0.00 | 0.56 | 0.00 | 92 | 1015.0 |
| 20260508070022 | 50 | 4 | 0.0 | 0.0 | 0.00 | 0.76 | 0.00 | 91 | 1014.8 |
| 20260508064558 | 51 | 4 | 0.0 | 0.0 | 0.00 | 0.76 | 0.00 | 91 | 1014.7 |
| 20260508063019 | 51 | 4 | 0.0 | 0.0 | 0.00 | 0.76 | 0.00 | 91 | 1014.7 |
| 20260508061615 | 51 | 4 | 0.0 | 0.0 | 0.00 | 0.76 | 0.00 | 91 | 1014.7 |
| 20260508060041 | 52 | 4 | 0.0 | 0.0 | 0.00 | 0.85 | 0.00 | 91 | 1014.8 |
| 20260508054533 | 52 | 4 | 0.0 | 0.0 | 0.00 | 0.85 | 0.00 | 90 | 1014.8 |
| 20260508053053 | 52 | 4 | 0.0 | 0.0 | 0.00 | 0.85 | 0.00 | 90 | 1014.8 |
| 20260508051521 | 53 | 4 | 0.0 | 0.0 | 0.00 | 0.85 | 0.00 | 89 | 1014.7 |
| 20260508050051 | 53 | 4 | 0.0 | 0.0 | 0.00 | 0.87 | 0.00 | 87 | 1014.5 |
| 20260508044558 | 54 | 4 | 0.0 | 0.0 | 0.00 | 0.87 | 0.00 | 85 | 1014.5 |
| 20260508043019 | 55 | 4 | 0.0 | 0.0 | 0.00 | 0.87 | 0.00 | 85 | 1014.3 |
| 20260508041602 | 55 | 4 | 0.0 | 0.0 | 0.00 | 0.87 | 0.00 | 82 | 1014.3 |
| 20260508040036 | 56 | 4 | 0.0 | 0.0 | 0.00 | 0.88 | 0.87 | 81 | 1014.3 |
| 20260508034558 | 57 | 4 | 0.0 | 0.0 | 0.00 | 0.88 | 0.87 | 78 | 1014.3 |
| 20260508034502 | 57 | 4 | 0.0 | 0.0 | 0.00 | 0.88 | 0.87 | 78 | 1014.3 |
| 20260508033018 | 57 | 4 | 0.0 | 0.0 | 0.00 | 0.88 | 0.87 | 77 | 1014.4 |
| 20260508031543 | 58 | 4 | 0.0 | 0.0 | 0.00 | 0.88 | 0.87 | 74 | 1014.1 |
| 20260508030058 | 59 | 4 | 0.0 | 0.0 | 0.00 | 0.96 | 0.87 | 72 | 1014.1 |
| 20260508024554 | 60 | 4 | 0.0 | 2.0 | 0.00 | 0.96 | 0.87 | 68 | 1013.9 |
| 20260508023012 | 61 | 35 | 0.0 | 2.0 | 0.00 | 0.96 | 0.87 | 68 | 1013.7 |
| 20260508021544 | 61 | 49 | 1.0 | 3.0 | 0.00 | 0.96 | 0.87 | 67 | 1013.4 |
| 20260508020004 | 62 | 21 | 1.0 | 4.0 | 0.00 | 1.25 | 0.87 | 66 | 1013.2 |
| 20260508014545 | 63 | 4 | 2.0 | 7.0 | 0.00 | 1.25 | 0.87 | 57 | 1012.9 |
| 20260508013057 | 63 | 359 | 1.0 | 7.0 | 0.00 | 1.25 | 0.87 | 59 | 1012.7 |
| 20260508011524 | 64 | 17 | 6.0 | 10.0 | 0.00 | 1.25 | 0.87 | 56 | 1012.1 |
| 20260508010058 | 65 | 353 | 3.0 | 6.0 | 0.00 | 1.67 | 0.87 | 60 | 1012.1 |
| 20260508004530 | 65 | 18 | 5.0 | 10.0 | 0.00 | 1.67 | 0.87 | 59 | 1011.5 |
| 20260508003058 | 66 | 339 | 2.0 | 9.0 | 0.00 | 1.67 | 0.87 | 61 | 1011.2 |
| 20260508001524 | 67 | 357 | 4.0 | 9.0 | 0.00 | 1.67 | 0.87 | 61 | 1010.8 |
| 20260508000059 | 68 | 349 | 4.0 | 9.0 | 0.00 | 1.82 | 0.87 | 62 | 1010.5 |
| 20260507234555 | 69 | 345 | 2.0 | 11.0 | 0.00 | 1.82 | 0.87 | 61 | 1010.4 |
| 20260507233039 | 70 | 359 | 4.0 | 12.0 | 0.00 | 1.82 | 0.87 | 60 | 1009.8 |
| 20260507231550 | 71 | 345 | 3.0 | 9.0 | 0.00 | 1.82 | 0.87 | 62 | 1009.4 |
| 20260507230019 | 73 | 349 | 3.0 | 7.0 | 0.00 | 1.82 | 0.87 | 64 | 1009.1 |